Cape Edgecumbe Buoy AK current weather conditions

sailwx.info

Wind from 070 at 11 knots gusting 13

Wave height 1.9 meters (6 feet), 11 second period

Air temperature 4.4° C
Dewpoint 3.7° C
Water temperature 6.3° C

Last reported at 2020-Jan-22 11:50 UTC.
Time now 2020-Jan-22 13:26 UTC

Location: N 56°36' W 136°06'.
View on Google Maps.

See reports from other nearby stations

  
Tides and Currents Weather Stations Pressure Air Temp Water Temp Dewpoint Dewpoint Depression Visibility Wind Speed Wind Dir Waves Ship Positions
date/time (UTC)wind fromknots sea level pressurealtimeterstation pressurevisibilityair tempwater tempwave heightnotes
2020-Jan-22 11:50 070 11 gusting 13 4.4 6.3 1.9
2020-Jan-22 10:50 090 9 gusting 11 4.6 6.4 2.1
2020-Jan-22 09:50 090 3 gusting 7 4.6 6.4 2.0
2020-Jan-22 08:50 110 3 gusting 5 4.6 6.4 2.1
2020-Jan-22 07:50 100 5 gusting 7 4.3 6.4 2.2
2020-Jan-22 06:50 110 5 gusting 7 4.5 6.4 2.2
2020-Jan-22 05:50 100 5 gusting 7 4.4 6.5 2.2
2020-Jan-22 04:50 100 5 gusting 7 4.2 6.5 2.4
2020-Jan-22 03:50 100 5 gusting 7 4.1 6.5 2.3
2020-Jan-22 02:50 090 3 gusting 5 4.1 6.5 2.3
2020-Jan-22 01:50 100 3 gusting 5 4.0 6.5 1.9
2020-Jan-22 00:50 100 1 gusting 3 4.1 6.5 1.5
2020-Jan-21 23:50 100 3 gusting 3 4.0 6.4 1.6
2020-Jan-21 22:50 120 3 gusting 5 4.2 6.3 1.5
2020-Jan-21 21:50 100 3 gusting 7 4.5 6.4 1.4
2020-Jan-21 20:50 100 9 gusting 11 4.5 6.3 1.5
2020-Jan-21 19:50 070 11 gusting 13 5.0 6.2 1.5
2020-Jan-21 18:50 070 7 gusting 11 5.5 6.1 1.7
2020-Jan-21 17:50 050 7 gusting 9 5.5 6.1 1.7
2020-Jan-21 16:50 070 9 gusting 11 5.5 6.1 1.9
2020-Jan-21 15:50 070 7 gusting 11 5.3 6.2 1.9
2020-Jan-21 14:50 060 9 gusting 11 5.5 6.4 1.8
2020-Jan-21 13:50 060 9 gusting 11 5.4 6.3 2.0
2020-Jan-21 12:50 050 11 gusting 13 5.5 6.5 1.9
2020-Jan-21 11:50 050 11 gusting 15 5.6 6.6 2.1
2020-Jan-21 10:50 060 11 gusting 13 5.5 6.7 2.2
2020-Jan-21 09:50 070 9 gusting 11 5.8 6.7 2.2
2020-Jan-21 08:50 080 9 gusting 11 5.7 6.7 2.2
2020-Jan-21 07:50 100 11 gusting 15 5.7 6.7 2.3
2020-Jan-21 06:50 110 13 gusting 15 5.5 6.6 2.6
2020-Jan-21 05:50 130 17 gusting 19 5.7 6.6 2.9
2020-Jan-21 04:50 130 13 gusting 17 5.7 6.6 2.6
2020-Jan-21 03:50 130 15 gusting 17 5.7 6.6 2.6
2020-Jan-21 02:50 140 15 gusting 17 5.6 6.3 2.7
2020-Jan-21 01:50 150 11 gusting 15 5.7 6.4 2.7
2020-Jan-21 00:50 150 7 gusting 9 5.1 6.4 2.7
2020-Jan-20 23:50 180 5 gusting 7 5.7 6.4 2.8
2020-Jan-20 22:50 210 11 gusting 13 5.5 6.4 2.8
2020-Jan-20 21:50 190 13 gusting 15 5.1 6.4 2.6
2020-Jan-20 20:50 190 15 gusting 19 5.4 6.4 2.8
2020-Jan-20 19:50 190 17 gusting 21 5.3 6.3 3.1
2020-Jan-20 18:50 180 15 gusting 19 5.5 6.3 2.9
2020-Jan-20 17:50 180 17 gusting 23 5.7 6.3 3.1
2020-Jan-20 16:50 140 21 gusting 25 5.1 6.3 3.1
2020-Jan-20 15:50 130 21 gusting 27 5.4 6.3 3.1
2020-Jan-20 14:50 130 21 gusting 27 5.4 6.3 3.0
2020-Jan-20 13:50 130 21 gusting 25 5.2 6.3 3.2